sensor_id;sensor_type;location;lat;lon;timestamp;pressure;altitude;pressure_sealevel;temperature
24201;BMP280;2801;50.972;7.856;2023-07-20T00:02:04;97388.06;;;15.54
24201;BMP280;2801;50.972;7.856;2023-07-20T00:04:32;97389.03;;;15.42
24201;BMP280;2801;50.972;7.856;2023-07-20T00:07:00;97386.59;;;15.37
24201;BMP280;2801;50.972;7.856;2023-07-20T00:09:30;97384.56;;;15.34
24201;BMP280;2801;50.972;7.856;2023-07-20T00:11:57;97380.94;;;15.27
24201;BMP280;2801;50.972;7.856;2023-07-20T00:14:24;97392.91;;;15.26
24201;BMP280;2801;50.972;7.856;2023-07-20T00:16:52;97393.94;;;15.21
24201;BMP280;2801;50.972;7.856;2023-07-20T00:19:24;97384.91;;;15.14
24201;BMP280;2801;50.972;7.856;2023-07-20T00:21:53;97373.63;;;15.08
24201;BMP280;2801;50.972;7.856;2023-07-20T00:24:20;97380.13;;;15.07
24201;BMP280;2801;50.972;7.856;2023-07-20T00:26:50;97372.69;;;15.01
24201;BMP280;2801;50.972;7.856;2023-07-20T00:29:18;97382.34;;;15.02
24201;BMP280;2801;50.972;7.856;2023-07-20T00:31:44;97379.22;;;15.00
24201;BMP280;2801;50.972;7.856;2023-07-20T00:34:13;97377.72;;;15.02
24201;BMP280;2801;50.972;7.856;2023-07-20T00:36:40;97375.44;;;15.04
24201;BMP280;2801;50.972;7.856;2023-07-20T00:39:08;97375.94;;;15.10
24201;BMP280;2801;50.972;7.856;2023-07-20T00:41:35;97361.94;;;15.04
24201;BMP280;2801;50.972;7.856;2023-07-20T00:44:02;97365.88;;;15.07
24201;BMP280;2801;50.972;7.856;2023-07-20T00:46:29;97358.38;;;15.00
24201;BMP280;2801;50.972;7.856;2023-07-20T00:48:57;97366.06;;;14.98
24201;BMP280;2801;50.972;7.856;2023-07-20T00:51:26;97372.44;;;14.90
24201;BMP280;2801;50.972;7.856;2023-07-20T00:53:54;97370.72;;;14.82
24201;BMP280;2801;50.972;7.856;2023-07-20T00:56:22;97375.69;;;14.80
24201;BMP280;2801;50.972;7.856;2023-07-20T00:58:50;97378.16;;;14.69
24201;BMP280;2801;50.972;7.856;2023-07-20T01:01:17;97380.69;;;14.62
24201;BMP280;2801;50.972;7.856;2023-07-20T01:03:44;97386.44;;;14.45
24201;BMP280;2801;50.972;7.856;2023-07-20T01:09:14;97384.00;;;14.25
24201;BMP280;2801;50.972;7.856;2023-07-20T01:12:05;97387.06;;;14.23
24201;BMP280;2801;50.972;7.856;2023-07-20T01:14:34;97377.72;;;14.21
24201;BMP280;2801;50.972;7.856;2023-07-20T01:17:02;97390.78;;;14.19
24201;BMP280;2801;50.972;7.856;2023-07-20T01:19:30;97387.22;;;14.15
24201;BMP280;2801;50.972;7.856;2023-07-20T01:33:23;97394.19;;;14.31
24201;BMP280;2801;50.972;7.856;2023-07-20T01:35:59;97385.78;;;14.33
24201;BMP280;2801;50.972;7.856;2023-07-20T01:38:27;97388.63;;;14.40
24201;BMP280;2801;50.972;7.856;2023-07-20T01:40:55;97384.47;;;14.42
24201;BMP280;2801;50.972;7.856;2023-07-20T01:43:22;97388.03;;;14.46
24201;BMP280;2801;50.972;7.856;2023-07-20T01:45:49;97380.34;;;14.48
24201;BMP280;2801;50.972;7.856;2023-07-20T01:48:16;97390.44;;;14.51
24201;BMP280;2801;50.972;7.856;2023-07-20T01:50:44;97380.78;;;14.50
24201;BMP280;2801;50.972;7.856;2023-07-20T01:53:11;97379.38;;;14.56
24201;BMP280;2801;50.972;7.856;2023-07-20T01:55:38;97384.88;;;14.60
24201;BMP280;2801;50.972;7.856;2023-07-20T01:58:05;97374.94;;;14.64
24201;BMP280;2801;50.972;7.856;2023-07-20T02:00:32;97392.06;;;14.71
24201;BMP280;2801;50.972;7.856;2023-07-20T02:02:59;97382.84;;;14.73
24201;BMP280;2801;50.972;7.856;2023-07-20T02:05:26;97379.81;;;14.74
24201;BMP280;2801;50.972;7.856;2023-07-20T02:07:53;97385.28;;;14.77
24201;BMP280;2801;50.972;7.856;2023-07-20T02:10:20;97370.13;;;14.73
24201;BMP280;2801;50.972;7.856;2023-07-20T02:12:47;97386.19;;;14.85
24201;BMP280;2801;50.972;7.856;2023-07-20T02:15:15;97379.34;;;14.88
24201;BMP280;2801;50.972;7.856;2023-07-20T02:17:46;97385.25;;;14.93
24201;BMP280;2801;50.972;7.856;2023-07-20T02:20:13;97380.72;;;14.97
24201;BMP280;2801;50.972;7.856;2023-07-20T02:22:40;97378.50;;;15.03
24201;BMP280;2801;50.972;7.856;2023-07-20T02:25:08;97376.69;;;15.07
24201;BMP280;2801;50.972;7.856;2023-07-20T02:27:36;97377.19;;;15.12
24201;BMP280;2801;50.972;7.856;2023-07-20T02:30:05;97372.53;;;15.13
24201;BMP280;2801;50.972;7.856;2023-07-20T02:32:34;97374.75;;;15.26
24201;BMP280;2801;50.972;7.856;2023-07-20T02:35:01;97377.53;;;15.30
24201;BMP280;2801;50.972;7.856;2023-07-20T02:37:29;97371.53;;;15.36
24201;BMP280;2801;50.972;7.856;2023-07-20T02:39:57;97366.13;;;15.36
24201;BMP280;2801;50.972;7.856;2023-07-20T02:42:24;97375.00;;;15.37
24201;BMP280;2801;50.972;7.856;2023-07-20T02:44:52;97364.03;;;15.30
24201;BMP280;2801;50.972;7.856;2023-07-20T02:47:19;97370.28;;;15.34
24201;BMP280;2801;50.972;7.856;2023-07-20T02:49:46;97354.34;;;15.29
24201;BMP280;2801;50.972;7.856;2023-07-20T02:52:13;97350.78;;;15.25
24201;BMP280;2801;50.972;7.856;2023-07-20T02:54:40;97352.66;;;15.21
24201;BMP280;2801;50.972;7.856;2023-07-20T02:57:07;97366.88;;;15.18
24201;BMP280;2801;50.972;7.856;2023-07-20T02:59:34;97357.84;;;15.10
24201;BMP280;2801;50.972;7.856;2023-07-20T03:02:01;97365.78;;;15.03
24201;BMP280;2801;50.972;7.856;2023-07-20T03:04:28;97371.13;;;15.00
24201;BMP280;2801;50.972;7.856;2023-07-20T03:06:55;97366.09;;;14.82
24201;BMP280;2801;50.972;7.856;2023-07-20T03:09:22;97352.38;;;14.72
24201;BMP280;2801;50.972;7.856;2023-07-20T03:11:50;97372.06;;;14.73
24201;BMP280;2801;50.972;7.856;2023-07-20T03:14:17;97379.13;;;14.61
24201;BMP280;2801;50.972;7.856;2023-07-20T03:16:44;97372.53;;;14.59
24201;BMP280;2801;50.972;7.856;2023-07-20T03:19:11;97376.09;;;14.63
24201;BMP280;2801;50.972;7.856;2023-07-20T03:21:38;97373.09;;;14.68
24201;BMP280;2801;50.972;7.856;2023-07-20T03:24:08;97377.19;;;14.77
24201;BMP280;2801;50.972;7.856;2023-07-20T03:26:36;97386.19;;;14.85
24201;BMP280;2801;50.972;7.856;2023-07-20T03:29:04;97376.78;;;14.95
24201;BMP280;2801;50.972;7.856;2023-07-20T03:31:32;97380.06;;;15.04
24201;BMP280;2801;50.972;7.856;2023-07-20T04:03:18;97388.09;;;15.19
24201;BMP280;2801;50.972;7.856;2023-07-20T04:05:45;97398.63;;;15.24
24201;BMP280;2801;50.972;7.856;2023-07-20T04:08:12;97402.19;;;15.28
24201;BMP280;2801;50.972;7.856;2023-07-20T04:10:44;97402.25;;;15.32
24201;BMP280;2801;50.972;7.856;2023-07-20T04:13:12;97397.31;;;15.34
24201;BMP280;2801;50.972;7.856;2023-07-20T04:15:39;97402.09;;;15.40
24201;BMP280;2801;50.972;7.856;2023-07-20T04:18:06;97385.03;;;15.36
24201;BMP280;2801;50.972;7.856;2023-07-20T04:20:33;97402.25;;;15.47
24201;BMP280;2801;50.972;7.856;2023-07-20T04:23:00;97408.19;;;15.56
24201;BMP280;2801;50.972;7.856;2023-07-20T04:25:27;97406.00;;;15.62
24201;BMP280;2801;50.972;7.856;2023-07-20T04:27:54;97404.88;;;15.63
24201;BMP280;2801;50.972;7.856;2023-07-20T04:30:22;97404.50;;;15.64
24201;BMP280;2801;50.972;7.856;2023-07-20T04:32:50;97388.16;;;15.57
24201;BMP280;2801;50.972;7.856;2023-07-20T04:35:51;97403.06;;;15.70
24201;BMP280;2801;50.972;7.856;2023-07-20T04:38:20;97403.97;;;15.78
24201;BMP280;2801;50.972;7.856;2023-07-20T04:40:49;97396.66;;;15.78
24201;BMP280;2801;50.972;7.856;2023-07-20T04:43:17;97392.47;;;15.81
24201;BMP280;2801;50.972;7.856;2023-07-20T04:45:45;97399.50;;;15.85
24201;BMP280;2801;50.972;7.856;2023-07-20T04:48:15;97398.78;;;15.88
24201;BMP280;2801;50.972;7.856;2023-07-20T04:50:45;97401.50;;;15.88
24201;BMP280;2801;50.972;7.856;2023-07-20T04:53:13;97400.03;;;15.94
24201;BMP280;2801;50.972;7.856;2023-07-20T04:55:46;97409.09;;;16.02
24201;BMP280;2801;50.972;7.856;2023-07-20T04:58:13;97404.16;;;16.07
24201;BMP280;2801;50.972;7.856;2023-07-20T05:00:40;97400.78;;;16.14
24201;BMP280;2801;50.972;7.856;2023-07-20T05:03:07;97398.13;;;16.17
24201;BMP280;2801;50.972;7.856;2023-07-20T05:05:35;97393.16;;;16.19
24201;BMP280;2801;50.972;7.856;2023-07-20T05:08:03;97396.78;;;16.27
24201;BMP280;2801;50.972;7.856;2023-07-20T05:10:31;97398.47;;;16.35
24201;BMP280;2801;50.972;7.856;2023-07-20T05:12:59;97392.69;;;16.36
24201;BMP280;2801;50.972;7.856;2023-07-20T05:15:26;97394.41;;;16.44
24201;BMP280;2801;50.972;7.856;2023-07-20T05:17:53;97398.00;;;16.52
24201;BMP280;2801;50.972;7.856;2023-07-20T05:20:20;97391.91;;;16.58
24201;BMP280;2801;50.972;7.856;2023-07-20T05:22:48;97403.53;;;16.59
24201;BMP280;2801;50.972;7.856;2023-07-20T05:25:15;97403.47;;;16.55
24201;BMP280;2801;50.972;7.856;2023-07-20T05:27:45;97400.38;;;16.57
24201;BMP280;2801;50.972;7.856;2023-07-20T05:30:13;97404.34;;;16.63
24201;BMP280;2801;50.972;7.856;2023-07-20T05:32:40;97404.78;;;16.65
24201;BMP280;2801;50.972;7.856;2023-07-20T05:35:08;97398.25;;;16.69
24201;BMP280;2801;50.972;7.856;2023-07-20T05:37:35;97386.25;;;16.67
24201;BMP280;2801;50.972;7.856;2023-07-20T05:40:02;97401.19;;;16.83
24201;BMP280;2801;50.972;7.856;2023-07-20T05:42:29;97399.94;;;17.03
24201;BMP280;2801;50.972;7.856;2023-07-20T05:44:56;97401.66;;;17.15
24201;BMP280;2801;50.972;7.856;2023-07-20T05:47:23;97401.28;;;17.16
24201;BMP280;2801;50.972;7.856;2023-07-20T05:49:51;97399.81;;;17.22
24201;BMP280;2801;50.972;7.856;2023-07-20T05:52:18;97408.44;;;17.31
24201;BMP280;2801;50.972;7.856;2023-07-20T05:54:44;97408.94;;;17.40
24201;BMP280;2801;50.972;7.856;2023-07-20T05:57:14;97414.03;;;17.42
24201;BMP280;2801;50.972;7.856;2023-07-20T05:59:41;97409.03;;;17.44
24201;BMP280;2801;50.972;7.856;2023-07-20T06:02:11;97409.28;;;17.35
24201;BMP280;2801;50.972;7.856;2023-07-20T06:04:39;97409.28;;;17.35
24201;BMP280;2801;50.972;7.856;2023-07-20T06:07:06;97403.13;;;17.38
24201;BMP280;2801;50.972;7.856;2023-07-20T06:09:36;97417.19;;;17.47
24201;BMP280;2801;50.972;7.856;2023-07-20T06:12:04;97415.22;;;17.44
24201;BMP280;2801;50.972;7.856;2023-07-20T06:14:31;97422.84;;;17.39
24201;BMP280;2801;50.972;7.856;2023-07-20T06:16:58;97410.72;;;17.29
24201;BMP280;2801;50.972;7.856;2023-07-20T06:19:24;97406.75;;;17.20
24201;BMP280;2801;50.972;7.856;2023-07-20T06:21:52;97412.97;;;17.24
24201;BMP280;2801;50.972;7.856;2023-07-20T06:24:19;97413.81;;;17.28
24201;BMP280;2801;50.972;7.856;2023-07-20T06:26:46;97411.97;;;17.35
24201;BMP280;2801;50.972;7.856;2023-07-20T06:29:13;97413.75;;;17.50
24201;BMP280;2801;50.972;7.856;2023-07-20T06:31:39;97405.84;;;17.68
24201;BMP280;2801;50.972;7.856;2023-07-20T06:34:06;97405.28;;;17.88
24201;BMP280;2801;50.972;7.856;2023-07-20T06:36:34;97403.91;;;18.05
24201;BMP280;2801;50.972;7.856;2023-07-20T06:39:00;97414.19;;;18.26
24201;BMP280;2801;50.972;7.856;2023-07-20T06:41:32;97409.97;;;18.32
24201;BMP280;2801;50.972;7.856;2023-07-20T06:44:02;97416.50;;;18.23
24201;BMP280;2801;50.972;7.856;2023-07-20T06:46:29;97421.56;;;18.25
24201;BMP280;2801;50.972;7.856;2023-07-20T06:48:56;97412.22;;;18.23
24201;BMP280;2801;50.972;7.856;2023-07-20T06:51:26;97414.03;;;18.08
24201;BMP280;2801;50.972;7.856;2023-07-20T06:53:53;97411.63;;;17.99
24201;BMP280;2801;50.972;7.856;2023-07-20T06:56:20;97426.69;;;17.97
24201;BMP280;2801;50.972;7.856;2023-07-20T06:58:51;97425.19;;;18.03
24201;BMP280;2801;50.972;7.856;2023-07-20T07:01:18;97426.78;;;18.04
24201;BMP280;2801;50.972;7.856;2023-07-20T07:03:48;97429.88;;;18.06
24201;BMP280;2801;50.972;7.856;2023-07-20T07:06:19;97426.38;;;18.02
24201;BMP280;2801;50.972;7.856;2023-07-20T07:08:48;97425.53;;;17.98
24201;BMP280;2801;50.972;7.856;2023-07-20T07:11:15;97433.72;;;18.01
24201;BMP280;2801;50.972;7.856;2023-07-20T07:13:42;97426.38;;;18.05
24201;BMP280;2801;50.972;7.856;2023-07-20T07:16:09;97427.41;;;18.27
24201;BMP280;2801;50.972;7.856;2023-07-20T07:18:36;97420.97;;;18.42
24201;BMP280;2801;50.972;7.856;2023-07-20T07:21:03;97431.13;;;18.49
24201;BMP280;2801;50.972;7.856;2023-07-20T07:23:30;97429.22;;;18.56
24201;BMP280;2801;50.972;7.856;2023-07-20T07:25:57;97428.47;;;18.59
24201;BMP280;2801;50.972;7.856;2023-07-20T07:28:24;97413.31;;;18.55
24201;BMP280;2801;50.972;7.856;2023-07-20T07:30:51;97426.72;;;18.81
24201;BMP280;2801;50.972;7.856;2023-07-20T07:33:18;97432.69;;;19.04
24201;BMP280;2801;50.972;7.856;2023-07-20T07:35:45;97432.03;;;19.21
24201;BMP280;2801;50.972;7.856;2023-07-20T07:38:12;97420.06;;;19.29
24201;BMP280;2801;50.972;7.856;2023-07-20T07:40:59;97432.13;;;19.31
24201;BMP280;2801;50.972;7.856;2023-07-20T07:43:26;97428.16;;;19.22
24201;BMP280;2801;50.972;7.856;2023-07-20T07:45:54;97429.22;;;19.07
24201;BMP280;2801;50.972;7.856;2023-07-20T07:48:22;97433.84;;;18.99
24201;BMP280;2801;50.972;7.856;2023-07-20T07:50:49;97436.88;;;18.87
24201;BMP280;2801;50.972;7.856;2023-07-20T07:53:17;97441.88;;;18.82
24201;BMP280;2801;50.972;7.856;2023-07-20T07:55:44;97441.81;;;18.78
24201;BMP280;2801;50.972;7.856;2023-07-20T07:58:11;97436.53;;;18.96
24201;BMP280;2801;50.972;7.856;2023-07-20T08:00:39;97432.03;;;19.21
24201;BMP280;2801;50.972;7.856;2023-07-20T08:03:06;97443.41;;;19.37
24201;BMP280;2801;50.972;7.856;2023-07-20T08:05:34;97436.00;;;19.34
24201;BMP280;2801;50.972;7.856;2023-07-20T08:08:03;97444.16;;;19.30
24201;BMP280;2801;50.972;7.856;2023-07-20T08:10:32;97442.22;;;19.31
24201;BMP280;2801;50.972;7.856;2023-07-20T08:12:59;97438.72;;;19.30
24201;BMP280;2801;50.972;7.856;2023-07-20T08:15:26;97434.88;;;19.35
24201;BMP280;2801;50.972;7.856;2023-07-20T08:17:53;97441.94;;;19.53
24201;BMP280;2801;50.972;7.856;2023-07-20T08:20:20;97438.50;;;19.67
24201;BMP280;2801;50.972;7.856;2023-07-20T08:22:54;97445.22;;;19.90
24201;BMP280;2801;50.972;7.856;2023-07-20T08:25:22;97441.75;;;20.07
24201;BMP280;2801;50.972;7.856;2023-07-20T08:27:48;97446.91;;;20.23
24201;BMP280;2801;50.972;7.856;2023-07-20T08:30:16;97447.72;;;20.48
24201;BMP280;2801;50.972;7.856;2023-07-20T08:32:43;97447.72;;;20.69
24201;BMP280;2801;50.972;7.856;2023-07-20T08:35:10;97437.22;;;20.81
24201;BMP280;2801;50.972;7.856;2023-07-20T08:37:37;97433.72;;;20.81
24201;BMP280;2801;50.972;7.856;2023-07-20T08:40:04;97452.03;;;20.73
24201;BMP280;2801;50.972;7.856;2023-07-20T08:42:37;97440.34;;;20.59
24201;BMP280;2801;50.972;7.856;2023-07-20T08:45:08;97448.13;;;20.46
24201;BMP280;2801;50.972;7.856;2023-07-20T10:32:24;97429.19;;;21.96
24201;BMP280;2801;50.972;7.856;2023-07-20T10:34:56;97434.69;;;21.89
24201;BMP280;2801;50.972;7.856;2023-07-20T10:38:01;97427.75;;;21.74
24201;BMP280;2801;50.972;7.856;2023-07-20T10:40:38;97438.25;;;21.68
24201;BMP280;2801;50.972;7.856;2023-07-20T10:43:09;97434.34;;;21.66
24201;BMP280;2801;50.972;7.856;2023-07-20T10:45:42;97435.94;;;21.63
24201;BMP280;2801;50.972;7.856;2023-07-20T10:48:20;97428.13;;;21.65
24201;BMP280;2801;50.972;7.856;2023-07-20T10:51:40;97430.78;;;21.90
24201;BMP280;2801;50.972;7.856;2023-07-20T10:54:55;97429.66;;;21.80
24201;BMP280;2801;50.972;7.856;2023-07-20T10:56:58;97423.41;;;21.83
24201;BMP280;2801;50.972;7.856;2023-07-20T10:59:47;97428.16;;;21.72
24201;BMP280;2801;50.972;7.856;2023-07-20T11:02:18;97423.47;;;21.62
24201;BMP280;2801;50.972;7.856;2023-07-20T11:04:47;97434.06;;;21.46
24201;BMP280;2801;50.972;7.856;2023-07-20T11:07:36;97428.59;;;21.35
24201;BMP280;2801;50.972;7.856;2023-07-20T11:10:15;97433.28;;;21.31
24201;BMP280;2801;50.972;7.856;2023-07-20T11:13:21;97436.78;;;21.35
24201;BMP280;2801;50.972;7.856;2023-07-20T11:18:26;97421.03;;;21.92
24201;BMP280;2801;50.972;7.856;2023-07-20T11:20:53;97415.88;;;22.12
24201;BMP280;2801;50.972;7.856;2023-07-20T11:23:20;97418.47;;;22.29
24201;BMP280;2801;50.972;7.856;2023-07-20T11:25:48;97407.22;;;22.20
24201;BMP280;2801;50.972;7.856;2023-07-20T11:28:16;97409.22;;;22.09
24201;BMP280;2801;50.972;7.856;2023-07-20T11:30:43;97409.28;;;22.02
24201;BMP280;2801;50.972;7.856;2023-07-20T11:33:10;97411.94;;;22.09
24201;BMP280;2801;50.972;7.856;2023-07-20T11:35:48;97402.84;;;22.33
24201;BMP280;2801;50.972;7.856;2023-07-20T11:38:18;97390.97;;;22.57
24201;BMP280;2801;50.972;7.856;2023-07-20T11:40:46;97392.47;;;22.69
24201;BMP280;2801;50.972;7.856;2023-07-20T11:43:14;97399.84;;;22.72
24201;BMP280;2801;50.972;7.856;2023-07-20T11:45:45;97396.72;;;22.70
24201;BMP280;2801;50.972;7.856;2023-07-20T11:48:16;97399.09;;;22.68
24201;BMP280;2801;50.972;7.856;2023-07-20T11:50:44;97406.91;;;22.66
24201;BMP280;2801;50.972;7.856;2023-07-20T11:53:11;97403.03;;;22.63
24201;BMP280;2801;50.972;7.856;2023-07-20T11:55:40;97398.06;;;22.51
24201;BMP280;2801;50.972;7.856;2023-07-20T11:58:09;97407.44;;;22.47
24201;BMP280;2801;50.972;7.856;2023-07-20T12:00:39;97419.63;;;22.32
24201;BMP280;2801;50.972;7.856;2023-07-20T12:03:11;97420.06;;;22.23
24201;BMP280;2801;50.972;7.856;2023-07-20T12:05:39;97411.94;;;22.13
24201;BMP280;2801;50.972;7.856;2023-07-20T12:08:26;97414.78;;;21.95
24201;BMP280;2801;50.972;7.856;2023-07-20T12:10:53;97411.31;;;21.84
24201;BMP280;2801;50.972;7.856;2023-07-20T12:13:20;97417.59;;;21.78
24201;BMP280;2801;50.972;7.856;2023-07-20T12:15:47;97414.09;;;21.74
24201;BMP280;2801;50.972;7.856;2023-07-20T12:18:14;97422.69;;;21.72
24201;BMP280;2801;50.972;7.856;2023-07-20T12:20:41;97408.25;;;21.65
24201;BMP280;2801;50.972;7.856;2023-07-20T12:23:12;97426.19;;;21.62
24201;BMP280;2801;50.972;7.856;2023-07-20T12:25:43;97417.25;;;21.58
24201;BMP280;2801;50.972;7.856;2023-07-20T12:28:13;97418.78;;;21.59
24201;BMP280;2801;50.972;7.856;2023-07-20T12:30:43;97414.91;;;21.57
24201;BMP280;2801;50.972;7.856;2023-07-20T12:33:12;97409.44;;;21.57
24201;BMP280;2801;50.972;7.856;2023-07-20T12:35:43;97410.59;;;21.59
24201;BMP280;2801;50.972;7.856;2023-07-20T12:38:10;97412.56;;;21.62
24201;BMP280;2801;50.972;7.856;2023-07-20T12:40:37;97407.06;;;21.69
24201;BMP280;2801;50.972;7.856;2023-07-20T12:43:04;97412.91;;;21.82
24201;BMP280;2801;50.972;7.856;2023-07-20T12:45:32;97408.56;;;21.88
24201;BMP280;2801;50.972;7.856;2023-07-20T12:47:59;97404.66;;;21.92
24201;BMP280;2801;50.972;7.856;2023-07-20T12:50:27;97403.84;;;21.99
24201;BMP280;2801;50.972;7.856;2023-07-20T12:52:54;97404.59;;;22.06
24201;BMP280;2801;50.972;7.856;2023-07-20T12:55:21;97400.25;;;22.12
24201;BMP280;2801;50.972;7.856;2023-07-20T12:57:48;97390.84;;;22.17
24201;BMP280;2801;50.972;7.856;2023-07-20T13:00:15;97404.88;;;22.19
24201;BMP280;2801;50.972;7.856;2023-07-20T13:02:46;97394.34;;;22.21
24201;BMP280;2801;50.972;7.856;2023-07-20T13:05:13;97397.00;;;22.31
24201;BMP280;2801;50.972;7.856;2023-07-20T13:07:41;97395.41;;;22.34
24201;BMP280;2801;50.972;7.856;2023-07-20T13:10:12;97394.97;;;22.42
24201;BMP280;2801;50.972;7.856;2023-07-20T13:12:39;97389.84;;;22.55
24201;BMP280;2801;50.972;7.856;2023-07-20T13:15:09;97384.31;;;22.58
24201;BMP280;2801;50.972;7.856;2023-07-20T13:17:38;97390.09;;;22.71
24201;BMP280;2801;50.972;7.856;2023-07-20T13:20:10;97387.63;;;22.83
24201;BMP280;2801;50.972;7.856;2023-07-20T13:22:38;97386.84;;;22.83
24201;BMP280;2801;50.972;7.856;2023-07-20T13:25:06;97389.56;;;22.83
24201;BMP280;2801;50.972;7.856;2023-07-20T13:27:34;97383.31;;;22.86
24201;BMP280;2801;50.972;7.856;2023-07-20T13:30:02;97390.72;;;22.89
24201;BMP280;2801;50.972;7.856;2023-07-20T13:32:35;97382.91;;;22.91
24201;BMP280;2801;50.972;7.856;2023-07-20T13:35:03;97378.50;;;23.00
24201;BMP280;2801;50.972;7.856;2023-07-20T13:37:30;97384.66;;;23.11
24201;BMP280;2801;50.972;7.856;2023-07-20T13:39:57;97384.97;;;23.17
24201;BMP280;2801;50.972;7.856;2023-07-20T13:42:24;97385.31;;;23.22
24201;BMP280;2801;50.972;7.856;2023-07-20T13:44:51;97389.22;;;23.25
24201;BMP280;2801;50.972;7.856;2023-07-20T13:47:18;97391.16;;;23.24
24201;BMP280;2801;50.972;7.856;2023-07-20T13:49:48;97388.53;;;23.10
24201;BMP280;2801;50.972;7.856;2023-07-20T13:52:29;97389.66;;;23.16
24201;BMP280;2801;50.972;7.856;2023-07-20T13:54:58;97372.59;;;23.42
24201;BMP280;2801;50.972;7.856;2023-07-20T13:57:26;97369.06;;;23.75
24201;BMP280;2801;50.972;7.856;2023-07-20T13:59:53;97366.69;;;24.07
24201;BMP280;2801;50.972;7.856;2023-07-20T14:02:21;97368.28;;;24.31
24201;BMP280;2801;50.972;7.856;2023-07-20T14:04:50;97369.75;;;24.39
24201;BMP280;2801;50.972;7.856;2023-07-20T14:07:37;97355.88;;;24.23
24201;BMP280;2801;50.972;7.856;2023-07-20T14:10:05;97368.31;;;24.01
24201;BMP280;2801;50.972;7.856;2023-07-20T14:12:35;97357.28;;;23.78
24201;BMP280;2801;50.972;7.856;2023-07-20T14:15:02;97358.25;;;23.65
24201;BMP280;2801;50.972;7.856;2023-07-20T14:17:30;97371.81;;;23.42
24201;BMP280;2801;50.972;7.856;2023-07-20T14:19:58;97367.44;;;23.11
24201;BMP280;2801;50.972;7.856;2023-07-20T14:22:25;97377.09;;;22.82
24201;BMP280;2801;50.972;7.856;2023-07-20T14:24:53;97367.81;;;22.76
24201;BMP280;2801;50.972;7.856;2023-07-20T14:27:20;97372.09;;;22.77
24201;BMP280;2801;50.972;7.856;2023-07-20T14:29:47;97363.16;;;22.69
24201;BMP280;2801;50.972;7.856;2023-07-20T14:32:14;97363.25;;;22.62
24201;BMP280;2801;50.972;7.856;2023-07-20T14:34:41;97357.78;;;22.62
24201;BMP280;2801;50.972;7.856;2023-07-20T14:37:08;97362.00;;;22.67
24201;BMP280;2801;50.972;7.856;2023-07-20T14:39:35;97352.22;;;22.73
24201;BMP280;2801;50.972;7.856;2023-07-20T14:42:02;97358.31;;;22.87
24201;BMP280;2801;50.972;7.856;2023-07-20T14:44:30;97350.31;;;23.03
24201;BMP280;2801;50.972;7.856;2023-07-20T14:46:57;97353.06;;;23.40
24201;BMP280;2801;50.972;7.856;2023-07-20T14:49:39;97341.22;;;23.80
24201;BMP280;2801;50.972;7.856;2023-07-20T14:52:07;97344.19;;;24.19
24201;BMP280;2801;50.972;7.856;2023-07-20T14:54:36;97339.84;;;24.48
24201;BMP280;2801;50.972;7.856;2023-07-20T14:57:04;97334.34;;;24.48
24201;BMP280;2801;50.972;7.856;2023-07-20T14:59:31;97328.38;;;24.53
24201;BMP280;2801;50.972;7.856;2023-07-20T15:01:58;97324.09;;;24.52
24201;BMP280;2801;50.972;7.856;2023-07-20T15:04:25;97334.44;;;24.68
24201;BMP280;2801;50.972;7.856;2023-07-20T15:06:53;97328.28;;;24.84
24201;BMP280;2801;50.972;7.856;2023-07-20T15:09:21;97319.25;;;25.06
24201;BMP280;2801;50.972;7.856;2023-07-20T15:11:48;97331.22;;;25.35
24201;BMP280;2801;50.972;7.856;2023-07-20T15:14:15;97323.38;;;25.57
24201;BMP280;2801;50.972;7.856;2023-07-20T15:16:42;97322.66;;;25.53
24201;BMP280;2801;50.972;7.856;2023-07-20T15:19:11;97310.56;;;25.31
24201;BMP280;2801;50.972;7.856;2023-07-20T15:21:40;97312.31;;;25.21
24201;BMP280;2801;50.972;7.856;2023-07-20T15:24:07;97313.19;;;25.38
24201;BMP280;2801;50.972;7.856;2023-07-20T15:26:34;97303.44;;;25.53
24201;BMP280;2801;50.972;7.856;2023-07-20T15:29:01;97314.75;;;25.35
24201;BMP280;2801;50.972;7.856;2023-07-20T15:31:28;97304.81;;;25.22
24201;BMP280;2801;50.972;7.856;2023-07-20T15:33:58;97306.53;;;25.35
24201;BMP280;2801;50.972;7.856;2023-07-20T15:36:25;97314.22;;;25.44
24201;BMP280;2801;50.972;7.856;2023-07-20T15:38:52;97307.97;;;25.43
24201;BMP280;2801;50.972;7.856;2023-07-20T15:41:20;97311.69;;;25.33
24201;BMP280;2801;50.972;7.856;2023-07-20T15:43:48;97306.13;;;25.37
24201;BMP280;2801;50.972;7.856;2023-07-20T15:48:47;97289.94;;;25.42
24201;BMP280;2801;50.972;7.856;2023-07-20T15:51:14;97302.94;;;25.38
24201;BMP280;2801;50.972;7.856;2023-07-20T15:53:41;97292.81;;;25.16
24201;BMP280;2801;50.972;7.856;2023-07-20T15:56:08;97288.84;;;24.97
24201;BMP280;2801;50.972;7.856;2023-07-20T15:58:35;97288.38;;;25.02
24201;BMP280;2801;50.972;7.856;2023-07-20T16:01:03;97294.91;;;25.08
24201;BMP280;2801;50.972;7.856;2023-07-20T16:03:30;97288.59;;;25.11
24201;BMP280;2801;50.972;7.856;2023-07-20T16:06:00;97282.16;;;25.18
24201;BMP280;2801;50.972;7.856;2023-07-20T16:08:30;97279.84;;;25.16
24201;BMP280;2801;50.972;7.856;2023-07-20T16:10:57;97277.69;;;25.47
24201;BMP280;2801;50.972;7.856;2023-07-20T16:13:30;97274.13;;;25.66
24201;BMP280;2801;50.972;7.856;2023-07-20T16:15:57;97273.97;;;25.73
24201;BMP280;2801;50.972;7.856;2023-07-20T16:18:23;97280.16;;;25.77
24201;BMP280;2801;50.972;7.856;2023-07-20T16:20:51;97276.59;;;25.60
24201;BMP280;2801;50.972;7.856;2023-07-20T16:23:19;97275.13;;;25.56
24201;BMP280;2801;50.972;7.856;2023-07-20T16:25:46;97272.47;;;25.52
24201;BMP280;2801;50.972;7.856;2023-07-20T16:28:14;97275.56;;;25.54
24201;BMP280;2801;50.972;7.856;2023-07-20T16:30:40;97270.72;;;25.42
24201;BMP280;2801;50.972;7.856;2023-07-20T16:33:07;97263.25;;;25.23
24201;BMP280;2801;50.972;7.856;2023-07-20T16:35:39;97260.16;;;25.02
24201;BMP280;2801;50.972;7.856;2023-07-20T16:38:10;97270.66;;;24.87
24201;BMP280;2801;50.972;7.856;2023-07-20T16:40:40;97267.13;;;24.87
24201;BMP280;2801;50.972;7.856;2023-07-20T16:43:10;97253.22;;;24.78
24201;BMP280;2801;50.972;7.856;2023-07-20T16:45:37;97256.66;;;24.58
24201;BMP280;2801;50.972;7.856;2023-07-20T16:48:04;97256.84;;;24.48
24201;BMP280;2801;50.972;7.856;2023-07-20T16:50:32;97266.44;;;24.36
24201;BMP280;2801;50.972;7.856;2023-07-20T16:52:59;97259.13;;;24.30
24201;BMP280;2801;50.972;7.856;2023-07-20T16:55:26;97253.75;;;24.23
24201;BMP280;2801;50.972;7.856;2023-07-20T16:57:53;97254.63;;;24.16
24201;BMP280;2801;50.972;7.856;2023-07-20T17:00:20;97252.69;;;24.17
24201;BMP280;2801;50.972;7.856;2023-07-20T17:02:48;97248.34;;;24.19
24201;BMP280;2801;50.972;7.856;2023-07-20T17:05:16;97245.25;;;24.17